createdAt,value
2019-02-08T00:09:29.002Z,80.9
2019-02-08T00:24:39.750Z,81.2
2019-02-08T00:39:50.359Z,80.5
2019-02-08T00:55:01.058Z,80.7
2019-02-08T01:10:11.824Z,80.2
2019-02-08T01:25:22.606Z,80.8
2019-02-08T01:40:33.380Z,81.2
2019-02-08T01:55:44.146Z,80.1
2019-02-08T02:10:53.386Z,80.8
2019-02-08T02:26:05.796Z,81.3
2019-02-08T02:41:16.528Z,81.3
2019-02-08T02:56:27.269Z,81.4
2019-02-08T03:11:31.633Z,83
2019-02-08T03:26:48.826Z,83
2019-02-08T03:41:59.752Z,83.9
2019-02-08T03:57:10.707Z,84
2019-02-08T04:12:21.575Z,84.5
2019-02-08T04:27:32.559Z,85.1
2019-02-08T04:42:43.655Z,84.4
2019-02-08T04:57:54.697Z,84.4
2019-02-08T05:13:07.824Z,84.6
2019-02-08T05:28:15.180Z,84.8
2019-02-08T05:43:28.539Z,83.4
2019-02-08T05:58:40.018Z,82
2019-02-08T06:13:51.435Z,78.8
2019-02-08T06:28:55.138Z,79.2
2019-02-08T06:44:14.236Z,79.3
2019-02-08T06:59:25.339Z,79.4
2019-02-08T07:14:36.795Z,78.7
2019-02-08T07:29:48.283Z,78.1
2019-02-08T07:44:59.396Z,81.2
2019-02-08T08:00:10.719Z,64
2019-02-08T08:15:22.067Z,60.9
2019-02-08T08:30:33.397Z,61.8
2019-02-08T08:45:44.945Z,66
2019-02-08T09:00:56.660Z,65.8
2019-02-08T09:16:08.697Z,67.2
2019-02-08T09:31:20.659Z,67
2019-02-08T09:46:32.328Z,66.2
2019-02-08T10:01:45.779Z,63.6
2019-02-08T10:16:58.921Z,57.6
2019-02-08T10:32:12.425Z,53.4
2019-02-08T10:47:18.248Z,48.2
2019-02-08T11:02:41.725Z,40.6
2019-02-08T11:17:57.238Z,39.1
2019-02-08T11:33:13.412Z,35.2
2019-02-08T11:48:28.804Z,37.6
2019-02-08T12:03:33.386Z,35.2
2019-02-08T12:18:59.805Z,33.3
2019-02-08T12:34:15.624Z,31.5
2019-02-08T12:49:33.174Z,31.7
2019-02-08T13:04:46.955Z,31.9
2019-02-08T13:19:52.043Z,31.3
2019-02-08T13:35:19.657Z,28.3
2019-02-08T13:50:35.905Z,30.7
2019-02-08T14:05:52.410Z,30.8
2019-02-08T14:21:08.595Z,32.6
2019-02-08T14:36:24.890Z,32.5
2019-02-08T14:51:37.435Z,33
2019-02-08T15:06:58.428Z,31.6
2019-02-08T15:22:14.234Z,33.9
2019-02-08T15:37:29.184Z,40.2
2019-02-08T15:52:43.121Z,45.1
2019-02-08T16:07:51.370Z,48
2019-02-08T16:23:09.673Z,57.8
2019-02-08T16:38:22.661Z,56.7
2019-02-08T16:53:35.315Z,59.8
2019-02-08T17:08:47.832Z,62
2019-02-08T17:24:00.279Z,63.4
2019-02-08T17:39:12.666Z,65.8
2019-02-08T17:54:26.171Z,67.7
2019-02-08T18:09:37.071Z,69.6
2019-02-08T18:24:44.090Z,70.7
2019-02-08T18:40:01.745Z,72.1
2019-02-08T18:55:13.605Z,72.7
2019-02-08T19:10:25.622Z,73.3
2019-02-08T19:25:37.654Z,73.7
2019-02-08T19:40:49.705Z,73.7
2019-02-08T19:56:01.854Z,81.4
2019-02-08T20:11:15.144Z,67.2
2019-02-08T20:26:27.835Z,68.7
2019-02-08T20:41:34.610Z,71.6
2019-02-08T20:56:59.246Z,72.7
2019-02-08T21:12:04.338Z,72.5
2019-02-08T21:27:16.447Z,72.2
2019-02-08T21:42:28.433Z,71.4
2019-02-08T21:57:40.515Z,70.4
2019-02-08T22:12:52.654Z,68.2
2019-02-08T22:28:04.888Z,65.2
2019-02-08T22:43:17.208Z,61.5
2019-02-08T22:58:25.322Z,54.8
2019-02-08T23:13:42.394Z,54.6
2019-02-08T23:28:54.815Z,54.4
2019-02-08T23:44:07.256Z,54
2019-02-08T23:59:08.699Z,55.1
